Time;durP1;ratioP1;P1;durP2;ratioP2;P2;SDS_P1;SDS_P2;PMS_P1;PMS_P2;Temp;Humidity;BMP_temperature;BMP_pressure;BME280_temperature;BME280_humidity;BME280_pressure;Samples;Min_cycle;Max_cycle;Signal;HPM_P1;HPM_P2
2023/10/26 00:01:09;;;;;;;0.47;0.47;;;;;;;;;;5038965;28;20041;-85
2023/10/26 00:03:35;;;;;;;2.45;0.60;;;;;;;;;;5032982;28;20040;-87
2023/10/26 00:06:00;;;;;;;2.00;0.60;;;;;;;;;;5032356;28;20041;-86
2023/10/26 00:08:26;;;;;;;0.70;0.52;;;;;;;;;;5026965;28;20049;-85
2023/10/26 00:10:52;;;;;;;1.80;0.40;;;;;;;;;;5035457;28;20035;-87
2023/10/26 00:13:18;;;;;;;1.27;0.40;;;;;;;;;;5037384;28;20040;-85
2023/10/26 00:15:43;;;;;;;0.50;0.50;;;;;;;;;;5032816;28;20061;-87
2023/10/26 00:18:09;;;;;;;1.58;0.50;;;;;;;;;;5028243;28;20038;-85
2023/10/26 00:20:35;;;;;;;0.40;0.40;;;;;;;;;;5030703;28;20034;-86
2023/10/26 00:23:01;;;;;;;0.85;0.57;;;;;;;;;;5039213;28;20029;-86
2023/10/26 00:25:27;;;;;;;0.52;0.45;;;;;;;;;;5034013;28;20043;-85
2023/10/26 00:27:53;;;;;;;1.15;0.43;;;;;;;;;;5030289;28;20057;-86
2023/10/26 00:30:18;;;;;;;0.90;0.47;;;;;;;;;;5025329;28;20124;-86
2023/10/26 00:32:44;;;;;;;0.90;0.45;;;;;;;;;;5022021;28;20033;-86
2023/10/26 00:35:10;;;;;;;1.23;0.60;;;;;;;;;;5035318;28;20037;-84
2023/10/26 00:37:35;;;;;;;1.05;0.40;;;;;;;;;;5031295;28;20184;-87
2023/10/26 00:40:01;;;;;;;0.45;0.40;;;;;;;;;;5026810;28;20093;-86
2023/10/26 00:42:26;;;;;;;1.02;0.45;;;;;;;;;;5036269;28;20087;-86
2023/10/26 00:44:56;;;;;;;0.80;0.50;;;;;;;;;;5038329;28;20030;-86
2023/10/26 00:47:22;;;;;;;0.68;0.50;;;;;;;;;;5017025;28;20044;-86
2023/10/26 00:49:48;;;;;;;1.40;0.40;;;;;;;;;;5029392;28;20132;-87
2023/10/26 00:52:14;;;;;;;0.57;0.50;;;;;;;;;;5031791;28;20372;-86
2023/10/26 00:54:41;;;;;;;1.17;0.55;;;;;;;;;;5033985;28;20038;-86
2023/10/26 00:57:08;;;;;;;1.50;0.68;;;;;;;;;;5035890;28;20101;-86
2023/10/26 00:59:34;;;;;;;0.75;0.50;;;;;;;;;;5030890;28;20049;-86
2023/10/26 01:02:02;;;;;;;1.88;0.50;;;;;;;;;;5031031;28;20033;-85
2023/10/26 01:04:28;;;;;;;0.95;0.50;;;;;;;;;;5041867;28;20038;-86
2023/10/26 01:06:53;;;;;;;1.05;0.50;;;;;;;;;;5039345;28;20120;-86
2023/10/26 01:09:20;;;;;;;0.50;0.43;;;;;;;;;;5032049;28;20029;-87
2023/10/26 01:11:46;;;;;;;0.38;0.38;;;;;;;;;;5030325;28;20030;-86
2023/10/26 01:14:12;;;;;;;1.90;0.40;;;;;;;;;;5041549;28;20041;-87
2023/10/26 01:16:37;;;;;;;0.77;0.52;;;;;;;;;;5040681;28;20026;-86
2023/10/26 01:19:04;;;;;;;3.97;0.77;;;;;;;;;;5037635;28;20049;-86
2023/10/26 01:21:31;;;;;;;0.70;0.50;;;;;;;;;;5028264;28;20027;-86
2023/10/26 01:23:57;;;;;;;0.60;0.57;;;;;;;;;;5037663;28;20048;-87
2023/10/26 01:26:23;;;;;;;0.95;0.43;;;;;;;;;;5042630;28;20069;-86
2023/10/26 01:28:49;;;;;;;2.42;0.55;;;;;;;;;;5037800;28;20460;-87
2023/10/26 01:31:18;;;;;;;1.60;0.57;;;;;;;;;;5033268;28;20035;-86
2023/10/26 01:33:45;;;;;;;1.38;0.57;;;;;;;;;;5026515;28;20038;-86
2023/10/26 01:36:11;;;;;;;0.80;0.50;;;;;;;;;;5037942;28;20044;-86
2023/10/26 01:38:36;;;;;;;1.33;0.60;;;;;;;;;;5040035;28;20046;-86
2023/10/26 01:41:03;;;;;;;3.40;0.43;;;;;;;;;;5034520;28;20049;-85
2023/10/26 01:43:29;;;;;;;0.68;0.50;;;;;;;;;;5030148;28;20034;-87
2023/10/26 01:45:55;;;;;;;1.58;0.45;;;;;;;;;;5043556;28;20068;-87
2023/10/26 01:48:22;;;;;;;0.40;0.30;;;;;;;;;;5041343;28;20037;-87
2023/10/26 01:50:48;;;;;;;0.85;0.47;;;;;;;;;;5036013;28;20040;-86
2023/10/26 01:53:13;;;;;;;0.88;0.50;;;;;;;;;;5031205;28;20042;-87
2023/10/26 01:55:39;;;;;;;0.50;0.50;;;;;;;;;;5038616;28;20100;-86
2023/10/26 01:58:05;;;;;;;0.52;0.50;;;;;;;;;;5039873;28;20045;-85
2023/10/26 02:00:30;;;;;;;1.95;0.70;;;;;;;;;;5037119;28;20042;-86
2023/10/26 02:02:56;;;;;;;1.23;0.50;;;;;;;;;;5028904;28;20045;-86
2023/10/26 02:05:22;;;;;;;0.85;0.50;;;;;;;;;;5033115;28;20100;-88
2023/10/26 02:07:47;;;;;;;0.60;0.50;;;;;;;;;;5043691;28;20041;-86
2023/10/26 02:10:14;;;;;;;1.55;0.40;;;;;;;;;;5039226;28;20033;-85
2023/10/26 02:12:40;;;;;;;1.25;0.50;;;;;;;;;;5032936;28;20034;-87
2023/10/26 02:15:06;;;;;;;0.40;0.40;;;;;;;;;;5026578;28;20095;-86
2023/10/26 02:17:32;;;;;;;1.50;0.50;;;;;;;;;;5043403;28;20033;-85
2023/10/26 02:19:57;;;;;;;1.58;0.60;;;;;;;;;;5038950;28;20061;-87
2023/10/26 02:22:23;;;;;;;5.70;0.70;;;;;;;;;;5034509;28;20033;-87
2023/10/26 02:24:48;;;;;;;0.50;0.50;;;;;;;;;;5031243;28;20038;-87
2023/10/26 02:27:14;;;;;;;0.43;0.40;;;;;;;;;;5037161;28;20030;-85
2023/10/26 02:29:39;;;;;;;1.38;0.60;;;;;;;;;;5039836;28;20033;-86
2023/10/26 02:32:06;;;;;;;1.30;0.43;;;;;;;;;;5036619;28;20040;-85
2023/10/26 02:34:31;;;;;;;0.65;0.40;;;;;;;;;;5030865;28;20061;-87
2023/10/26 02:36:59;;;;;;;1.05;0.80;;;;;;;;;;5036978;28;20033;-87
2023/10/26 02:39:26;;;;;;;0.70;0.45;;;;;;;;;;5040887;28;20038;-86
2023/10/26 02:41:51;;;;;;;0.40;0.40;;;;;;;;;;5035836;28;20093;-87
2023/10/26 02:44:17;;;;;;;0.40;0.30;;;;;;;;;;5032491;28;20494;-86
2023/10/26 02:46:42;;;;;;;0.40;0.30;;;;;;;;;;5032090;28;20093;-87
2023/10/26 02:49:08;;;;;;;3.58;0.45;;;;;;;;;;5042743;28;20059;-86
2023/10/26 02:51:33;;;;;;;0.43;0.40;;;;;;;;;;5038130;28;20068;-86
2023/10/26 02:53:59;;;;;;;0.52;0.40;;;;;;;;;;5035085;28;20041;-87
2023/10/26 02:56:25;;;;;;;1.23;0.50;;;;;;;;;;5029889;28;20029;-86
2023/10/26 02:58:51;;;;;;;1.95;0.45;;;;;;;;;;5041074;28;20025;-88
2023/10/26 03:01:18;;;;;;;0.40;0.40;;;;;;;;;;5041444;28;20034;-87
2023/10/26 03:03:43;;;;;;;1.40;0.60;;;;;;;;;;5035359;28;20045;-87
2023/10/26 03:06:09;;;;;;;0.52;0.40;;;;;;;;;;5031200;28;20859;-86
2023/10/26 03:08:34;;;;;;;1.08;0.32;;;;;;;;;;5037886;28;20087;-87
2023/10/26 03:11:00;;;;;;;2.03;0.40;;;;;;;;;;5042622;28;20085;-86
2023/10/26 03:13:25;;;;;;;1.58;0.40;;;;;;;;;;5035370;28;20030;-86
2023/10/26 03:15:51;;;;;;;0.90;0.40;;;;;;;;;;5031492;28;20037;-86
2023/10/26 03:18:16;;;;;;;0.63;0.40;;;;;;;;;;5031058;28;20033;-87
2023/10/26 03:20:42;;;;;;;0.57;0.50;;;;;;;;;;5043445;28;20045;-86
2023/10/26 03:23:09;;;;;;;0.82;0.40;;;;;;;;;;5038646;28;20026;-87
2023/10/26 03:25:35;;;;;;;0.85;0.40;;;;;;;;;;5033723;28;20041;-86
2023/10/26 03:28:01;;;;;;;1.40;0.50;;;;;;;;;;5028989;28;20091;-87
2023/10/26 03:30:27;;;;;;;0.40;0.40;;;;;;;;;;5042852;28;20037;-86
2023/10/26 03:32:53;;;;;;;3.60;0.50;;;;;;;;;;5039478;28;20037;-86
2023/10/26 03:35:20;;;;;;;0.77;0.47;;;;;;;;;;5033997;28;20139;-86
2023/10/26 03:37:46;;;;;;;0.30;0.30;;;;;;;;;;5041335;28;20248;-86
2023/10/26 03:40:14;;;;;;;0.70;0.50;;;;;;;;;;5036955;28;20060;-85
2023/10/26 03:42:41;;;;;;;1.30;0.70;;;;;;;;;;5041416;28;20029;-86
2023/10/26 03:45:07;;;;;;;1.55;0.90;;;;;;;;;;5037260;28;20085;-86
2023/10/26 03:47:33;;;;;;;0.85;0.60;;;;;;;;;;5031554;28;20038;-87
2023/10/26 03:49:58;;;;;;;3.05;0.80;;;;;;;;;;5045249;28;20365;-86
2023/10/26 03:52:24;;;;;;;1.60;0.70;;;;;;;;;;5023761;28;20496;-88
2023/10/26 03:54:49;;;;;;;1.45;0.50;;;;;;;;;;5035693;28;20061;-87
2023/10/26 03:57:16;;;;;;;1.25;0.90;;;;;;;;;;5030822;28;20041;-86
2023/10/26 03:59:42;;;;;;;0.93;0.57;;;;;;;;;;5028223;28;20042;-86
2023/10/26 04:02:07;;;;;;;1.08;0.60;;;;;;;;;;5043346;28;20030;-86
2023/10/26 04:04:33;;;;;;;0.75;0.60;;;;;;;;;;5033497;28;20033;-86
2023/10/26 04:06:59;;;;;;;0.95;0.60;;;;;;;;;;5034772;28;20034;-86
2023/10/26 04:09:24;;;;;;;1.05;0.60;;;;;;;;;;5029880;28;20038;-86
2023/10/26 04:11:50;;;;;;;0.52;0.50;;;;;;;;;;5038025;28;20049;-87
2023/10/26 04:14:15;;;;;;;7.20;4.57;;;;;;;;;;5040803;28;20118;-87
2023/10/26 04:16:41;;;;;;;6.72;2.38;;;;;;;;;;5035654;28;20045;-85
2023/10/26 04:19:06;;;;;;;2.90;1.80;;;;;;;;;;5031088;28;20496;-86
2023/10/26 04:21:33;;;;;;;2.90;2.30;;;;;;;;;;5031988;28;20044;-87
2023/10/26 04:23:59;;;;;;;2.85;1.77;;;;;;;;;;5041547;28;20045;-87
2023/10/26 04:26:25;;;;;;;1.65;1.20;;;;;;;;;;5037014;28;20080;-86
2023/10/26 04:28:51;;;;;;;2.97;1.10;;;;;;;;;;5032540;28;20097;-86
2023/10/26 04:31:17;;;;;;;2.50;0.70;;;;;;;;;;5024113;28;20038;-87
2023/10/26 04:33:42;;;;;;;0.73;0.60;;;;;;;;;;5042756;28;20032;-86
2023/10/26 04:36:08;;;;;;;1.00;0.60;;;;;;;;;;5038450;28;20053;-85
2023/10/26 04:38:34;;;;;;;0.63;0.55;;;;;;;;;;5032942;28;20395;-86
2023/10/26 04:40:59;;;;;;;0.60;0.55;;;;;;;;;;5033320;28;20045;-86
2023/10/26 04:43:26;;;;;;;0.55;0.55;;;;;;;;;;5042267;28;20029;-87
2023/10/26 04:45:51;;;;;;;1.23;0.60;;;;;;;;;;5044399;28;20411;-86
2023/10/26 04:48:17;;;;;;;1.00;0.60;;;;;;;;;;5038229;28;20041;-87
2023/10/26 04:50:43;;;;;;;0.85;0.60;;;;;;;;;;5033176;28;20044;-87
2023/10/26 04:53:09;;;;;;;0.60;0.60;;;;;;;;;;5037358;28;20048;-86
2023/10/26 04:55:35;;;;;;;0.95;0.60;;;;;;;;;;5044825;28;20491;-86
2023/10/26 04:58:01;;;;;;;0.60;0.60;;;;;;;;;;5034410;28;20041;-84
2023/10/26 05:00:27;;;;;;;1.20;0.73;;;;;;;;;;5034964;28;20037;-85
2023/10/26 05:02:53;;;;;;;1.20;0.70;;;;;;;;;;5030114;28;20244;-86
2023/10/26 05:05:19;;;;;;;1.48;0.50;;;;;;;;;;5045500;28;20057;-86
2023/10/26 05:07:45;;;;;;;1.00;0.50;;;;;;;;;;5039297;28;20038;-86
2023/10/26 05:10:11;;;;;;;0.82;0.40;;;;;;;;;;5035987;28;20037;-85
2023/10/26 05:12:37;;;;;;;0.50;0.40;;;;;;;;;;5014028;28;20035;-86
2023/10/26 05:15:03;;;;;;;0.75;0.57;;;;;;;;;;5040046;28;20067;-85
2023/10/26 05:17:29;;;;;;;1.77;1.02;;;;;;;;;;5040776;28;20048;-86
2023/10/26 05:19:55;;;;;;;0.90;0.60;;;;;;;;;;5036884;28;20117;-87
2023/10/26 05:22:20;;;;;;;1.08;0.75;;;;;;;;;;5032449;28;20128;-86
2023/10/26 05:24:46;;;;;;;0.75;0.63;;;;;;;;;;5032679;28;20439;-86
2023/10/26 05:27:11;;;;;;;1.95;0.60;;;;;;;;;;5043221;28;20025;-85
2023/10/26 05:29:37;;;;;;;2.78;1.20;;;;;;;;;;5039498;28;20046;-86
2023/10/26 05:32:03;;;;;;;3.38;0.90;;;;;;;;;;5033075;28;20030;-84
2023/10/26 05:34:30;;;;;;;1.63;0.90;;;;;;;;;;5030272;28;20026;-85
2023/10/26 05:36:55;;;;;;;0.73;0.70;;;;;;;;;;5040266;28;20076;-85
2023/10/26 05:39:21;;;;;;;0.95;0.70;;;;;;;;;;5038360;28;20041;-87
2023/10/26 05:41:46;;;;;;;1.25;0.70;;;;;;;;;;5035868;28;20033;-87
2023/10/26 05:44:12;;;;;;;0.63;0.63;;;;;;;;;;5032751;28;20160;-86
2023/10/26 05:46:37;;;;;;;1.60;0.55;;;;;;;;;;5046247;28;20483;-86
2023/10/26 05:49:04;;;;;;;0.90;0.40;;;;;;;;;;5042652;28;20034;-86
2023/10/26 05:51:29;;;;;;;2.00;1.10;;;;;;;;;;5036619;28;20038;-86
2023/10/26 05:53:55;;;;;;;1.85;1.10;;;;;;;;;;5033160;28;20065;-87
2023/10/26 05:56:20;;;;;;;1.88;0.60;;;;;;;;;;5036070;28;20103;-87
2023/10/26 05:58:48;;;;;;;1.90;0.60;;;;;;;;;;5042984;28;20121;-88
2023/10/26 06:01:13;;;;;;;1.63;0.60;;;;;;;;;;5037739;28;20112;-87
2023/10/26 06:03:39;;;;;;;2.55;1.30;;;;;;;;;;5033606;28;20060;-85
2023/10/26 06:06:05;;;;;;;9.10;4.55;;;;;;;;;;5032410;28;20040;-86
2023/10/26 06:08:30;;;;;;;7.20;3.22;;;;;;;;;;5045084;28;20048;-86
2023/10/26 06:10:57;;;;;;;2.08;1.00;;;;;;;;;;5043616;28;20487;-88
2023/10/26 06:13:24;;;;;;;2.35;0.73;;;;;;;;;;5027439;28;20035;-86
2023/10/26 06:15:50;;;;;;;2.20;1.10;;;;;;;;;;5008979;28;20098;-88
2023/10/26 06:18:15;;;;;;;1.73;0.90;;;;;;;;;;5038687;28;20061;-86
2023/10/26 06:20:41;;;;;;;1.02;0.90;;;;;;;;;;5039561;28;20041;-87
2023/10/26 06:23:07;;;;;;;1.73;0.80;;;;;;;;;;5035523;28;20045;-87
2023/10/26 06:25:36;;;;;;;1.48;0.80;;;;;;;;;;5029801;28;20057;-87
2023/10/26 06:28:03;;;;;;;1.45;0.80;;;;;;;;;;5034674;28;20045;-86
2023/10/26 06:30:29;;;;;;;1.75;0.98;;;;;;;;;;5038706;28;20056;-86
2023/10/26 06:32:54;;;;;;;1.70;1.02;;;;;;;;;;5033829;28;20033;-86
2023/10/26 06:35:20;;;;;;;2.17;1.00;;;;;;;;;;5030521;28;20412;-87
2023/10/26 06:37:45;;;;;;;2.55;1.00;;;;;;;;;;5031039;28;20502;-87
2023/10/26 06:40:11;;;;;;;2.47;1.10;;;;;;;;;;5042151;28;20063;-86
2023/10/26 06:42:36;;;;;;;2.38;0.80;;;;;;;;;;5036992;28;20046;-86
2023/10/26 06:45:05;;;;;;;1.33;0.70;;;;;;;;;;5029332;28;20654;-86
2023/10/26 06:47:30;;;;;;;2.22;0.80;;;;;;;;;;5022403;28;20037;-86
2023/10/26 06:49:56;;;;;;;2.40;1.00;;;;;;;;;;5041672;28;20758;-86
2023/10/26 06:52:21;;;;;;;1.83;0.90;;;;;;;;;;5036089;28;20118;-86
2023/10/26 06:54:48;;;;;;;2.28;0.90;;;;;;;;;;5033672;28;20037;-88
2023/10/26 06:57:13;;;;;;;2.08;0.90;;;;;;;;;;5024442;28;20030;-87
2023/10/26 06:59:41;;;;;;;0.77;0.75;;;;;;;;;;5034600;28;20033;-87
2023/10/26 07:02:07;;;;;;;2.90;1.20;;;;;;;;;;5040030;28;20053;-84
2023/10/26 07:04:33;;;;;;;2.00;0.98;;;;;;;;;;5032329;28;20477;-85
2023/10/26 07:06:58;;;;;;;1.13;0.90;;;;;;;;;;5027236;28;20648;-85
2023/10/26 07:09:24;;;;;;;1.77;1.10;;;;;;;;;;5032575;28;20041;-86
2023/10/26 07:11:50;;;;;;;1.50;0.90;;;;;;;;;;5020855;28;20042;-87
2023/10/26 07:14:15;;;;;;;0.93;0.82;;;;;;;;;;5034190;28;20036;-86
2023/10/26 07:16:41;;;;;;;3.47;1.92;;;;;;;;;;5023179;28;20048;-86
2023/10/26 07:19:06;;;;;;;2.15;1.70;;;;;;;;;;5018780;28;20113;-86
2023/10/26 07:21:34;;;;;;;2.22;1.80;;;;;;;;;;5034633;28;20047;-86
2023/10/26 07:24:00;;;;;;;5.35;2.00;;;;;;;;;;5025360;28;20044;-87
2023/10/26 07:26:26;;;;;;;2.65;1.20;;;;;;;;;;5026225;28;20646;-86
2023/10/26 07:28:52;;;;;;;1.45;1.00;;;;;;;;;;5021925;28;20048;-86
2023/10/26 07:31:21;;;;;;;3.88;0.90;;;;;;;;;;5025864;28;20038;-88
2023/10/26 07:33:48;;;;;;;1.15;0.70;;;;;;;;;;5018264;28;20072;-86
2023/10/26 07:36:16;;;;;;;1.80;1.00;;;;;;;;;;5024465;28;20059;-85
2023/10/26 07:38:42;;;;;;;1.52;1.00;;;;;;;;;;5022003;28;20068;-85
2023/10/26 07:41:08;;;;;;;2.17;1.38;;;;;;;;;;5024790;28;20041;-85
2023/10/26 07:43:34;;;;;;;2.55;1.60;;;;;;;;;;5030081;28;20025;-88
2023/10/26 07:46:00;;;;;;;3.30;1.27;;;;;;;;;;5033319;28;20061;-87
2023/10/26 07:48:25;;;;;;;2.40;1.00;;;;;;;;;;5024792;28;20030;-88
2023/10/26 07:50:51;;;;;;;1.75;0.90;;;;;;;;;;5028183;28;20037;-88
2023/10/26 07:53:17;;;;;;;1.67;0.98;;;;;;;;;;5039693;28;20092;-88
2023/10/26 07:55:44;;;;;;;1.65;0.80;;;;;;;;;;5034222;28;20061;-88
2023/10/26 07:58:09;;;;;;;1.98;1.20;;;;;;;;;;5029381;28;20048;-87
2023/10/26 08:00:38;;;;;;;1.98;1.00;;;;;;;;;;5021684;28;20034;-88
2023/10/26 08:03:03;;;;;;;3.13;1.10;;;;;;;;;;5019398;28;20045;-88
2023/10/26 08:05:29;;;;;;;3.28;1.00;;;;;;;;;;5027715;28;20037;-88
2023/10/26 08:07:55;;;;;;;2.42;1.55;;;;;;;;;;5028364;28;20030;-87
2023/10/26 08:10:20;;;;;;;2.17;1.60;;;;;;;;;;5024003;28;20125;-87
2023/10/26 08:12:49;;;;;;;3.13;1.50;;;;;;;;;;5038260;28;20575;-87
2023/10/26 08:15:14;;;;;;;4.38;1.60;;;;;;;;;;5039411;28;20045;-87
2023/10/26 08:17:40;;;;;;;4.07;1.80;;;;;;;;;;5033745;28;20037;-86
2023/10/26 08:20:09;;;;;;;3.22;1.60;;;;;;;;;;5029821;28;20034;-87
2023/10/26 08:22:35;;;;;;;3.90;1.48;;;;;;;;;;5033290;28;20037;-86
2023/10/26 08:25:01;;;;;;;1.73;1.40;;;;;;;;;;5025050;28;20029;-87
2023/10/26 08:27:26;;;;;;;2.10;1.30;;;;;;;;;;5015646;28;20034;-88
2023/10/26 08:29:52;;;;;;;2.50;1.20;;;;;;;;;;5015297;28;20152;-88
2023/10/26 08:32:17;;;;;;;1.70;1.30;;;;;;;;;;5022133;28;20439;-88
2023/10/26 08:34:44;;;;;;;4.47;1.25;;;;;;;;;;5038593;28;20037;-87
2023/10/26 08:37:10;;;;;;;2.78;1.27;;;;;;;;;;5036667;28;20088;-87
2023/10/26 08:39:36;;;;;;;3.78;1.30;;;;;;;;;;5030624;28;20046;-87
2023/10/26 08:42:02;;;;;;;2.50;1.20;;;;;;;;;;5028313;28;20026;-87
2023/10/26 08:44:32;;;;;;;3.50;1.02;;;;;;;;;;5034504;28;20072;-88
2023/10/26 08:47:00;;;;;;;3.58;1.10;;;;;;;;;;5032933;28;20101;-88
2023/10/26 08:49:30;;;;;;;1.75;0.93;;;;;;;;;;5030616;28;20053;-87
2023/10/26 08:51:56;;;;;;;1.05;0.80;;;;;;;;;;5027658;28;20069;-88
2023/10/26 08:54:22;;;;;;;3.13;0.85;;;;;;;;;;5032498;28;20399;-86
2023/10/26 08:56:47;;;;;;;1.65;0.90;;;;;;;;;;5039139;28;20046;-87
2023/10/26 08:59:13;;;;;;;2.08;0.80;;;;;;;;;;5031422;28;20098;-86
2023/10/26 09:01:39;;;;;;;1.08;0.90;;;;;;;;;;5028435;28;20029;-86
2023/10/26 09:04:11;;;;;;;1.08;0.80;;;;;;;;;;5027902;28;20507;-86
2023/10/26 09:06:48;;;;;;;1.00;0.70;;;;;;;;;;5030377;28;20057;-86
2023/10/26 09:09:15;;;;;;;2.78;0.75;;;;;;;;;;5027405;28;20071;-86
2023/10/26 09:11:41;;;;;;;0.88;0.80;;;;;;;;;;5025940;28;20034;-87
2023/10/26 09:14:21;;;;;;;1.80;0.73;;;;;;;;;;5023270;28;20038;-87
2023/10/26 09:16:48;;;;;;;4.63;0.65;;;;;;;;;;5034572;28;20572;-87
2023/10/26 09:19:18;;;;;;;0.70;0.60;;;;;;;;;;5033483;28;20062;-87
2023/10/26 09:21:51;;;;;;;0.57;0.57;;;;;;;;;;5030386;28;20030;-86
2023/10/26 09:24:24;;;;;;;1.42;0.60;;;;;;;;;;5025791;28;20057;-87
2023/10/26 09:26:51;;;;;;;0.82;0.45;;;;;;;;;;5037472;28;20044;-88
2023/10/26 09:29:17;;;;;;;1.13;0.60;;;;;;;;;;5035846;28;20066;-86
2023/10/26 09:31:56;;;;;;;3.92;0.77;;;;;;;;;;5030500;28;20052;-87
2023/10/26 09:34:24;;;;;;;1.27;0.73;;;;;;;;;;5025487;28;20442;-87
2023/10/26 09:37:05;;;;;;;1.63;0.68;;;;;;;;;;5033011;28;20045;-87
2023/10/26 09:39:35;;;;;;;1.88;0.70;;;;;;;;;;5033357;28;20071;-87
2023/10/26 09:42:02;;;;;;;1.70;0.60;;;;;;;;;;5028721;28;20025;-88
2023/10/26 09:44:28;;;;;;;1.67;0.70;;;;;;;;;;5021501;28;20026;-88
2023/10/26 09:46:55;;;;;;;3.13;1.13;;;;;;;;;;5020101;28;20021;-88
2023/10/26 09:49:25;;;;;;;3.92;1.70;;;;;;;;;;5029156;28;20045;-88
2023/10/26 09:51:52;;;;;;;4.75;1.10;;;;;;;;;;5030607;28;20739;-86
2023/10/26 09:54:20;;;;;;;1.70;1.10;;;;;;;;;;5021491;28;20018;-86
2023/10/26 09:56:55;;;;;;;4.43;1.38;;;;;;;;;;5018222;28;20041;-88
2023/10/26 09:59:21;;;;;;;2.70;1.30;;;;;;;;;;5018772;28;20042;-87
2023/10/26 10:01:47;;;;;;;1.00;0.90;;;;;;;;;;5022096;28;20072;-87
2023/10/26 10:04:18;;;;;;;1.13;0.98;;;;;;;;;;5031313;28;20022;-88
2023/10/26 10:06:50;;;;;;;1.67;0.95;;;;;;;;;;5037814;28;20029;-87
2023/10/26 10:09:21;;;;;;;4.40;1.88;;;;;;;;;;5024895;28;20045;-88
2023/10/26 10:12:14;;;;;;;1.23;1.10;;;;;;;;;;5020873;28;20106;-88
2023/10/26 10:14:48;;;;;;;3.13;1.30;;;;;;;;;;5025268;28;20048;-88
2023/10/26 10:17:22;;;;;;;2.22;1.35;;;;;;;;;;5032426;28;20033;-87
2023/10/26 10:19:58;;;;;;;;;;;;;;;;;;5027038;28;20411;-87
2023/10/26 10:22:48;;;;;;;2.50;1.20;;;;;;;;;;5025523;28;19909;-86
2023/10/26 10:25:17;;;;;;;1.73;1.20;;;;;;;;;;5019867;28;20472;-86
2023/10/26 10:27:49;;;;;;;1.95;1.30;;;;;;;;;;5025042;28;20116;-86
2023/10/26 10:30:18;;;;;;;1.65;0.90;;;;;;;;;;5033545;28;20025;-86
2023/10/26 10:32:44;;;;;;;2.10;1.00;;;;;;;;;;5027911;28;20028;-86
2023/10/26 10:35:10;;;;;;;3.88;1.08;;;;;;;;;;5025118;28;20025;-87
2023/10/26 10:37:37;;;;;;;2.22;1.60;;;;;;;;;;5017327;28;20037;-88
2023/10/26 10:40:11;;;;;;;2.75;1.70;;;;;;;;;;5021328;28;20033;-88
2023/10/26 10:42:47;;;;;;;2.63;1.50;;;;;;;;;;5026819;28;20103;-88
2023/10/26 10:45:14;;;;;;;2.22;1.10;;;;;;;;;;5028395;28;20087;-88
2023/10/26 10:47:43;;;;;;;3.15;1.98;;;;;;;;;;5024661;28;20037;-86
2023/10/26 10:50:14;;;;;;;2.05;1.20;;;;;;;;;;5020691;28;20114;-83
2023/10/26 10:52:41;;;;;;;2.70;1.30;;;;;;;;;;5014732;28;20034;-83
2023/10/26 10:55:07;;;;;;;2.53;1.35;;;;;;;;;;5031350;28;20080;-83
2023/10/26 10:57:32;;;;;;;1.98;1.15;;;;;;;;;;5027655;28;20033;-83
2023/10/26 10:59:58;;;;;;;2.47;1.75;;;;;;;;;;5023526;28;20032;-83
2023/10/26 11:02:23;;;;;;;2.50;1.50;;;;;;;;;;5021237;28;20063;-86
2023/10/26 11:04:52;;;;;;;2.70;1.48;;;;;;;;;;5013834;28;20032;-87
2023/10/26 11:07:30;;;;;;;3.03;1.40;;;;;;;;;;5025737;28;20033;-87
2023/10/26 11:10:00;;;;;;;4.22;1.50;;;;;;;;;;5029593;28;20037;-88
2023/10/26 11:12:26;;;;;;;2.28;1.38;;;;;;;;;;5026560;28;20037;-86
2023/10/26 11:14:53;;;;;;;2.17;1.25;;;;;;;;;;5020450;28;20064;-86
2023/10/26 11:17:23;;;;;;;2.50;1.70;;;;;;;;;;5016969;28;20060;-86
2023/10/26 11:19:50;;;;;;;3.90;2.60;;;;;;;;;;5024033;28;20041;-86
2023/10/26 11:22:17;;;;;;;3.17;1.80;;;;;;;;;;5031018;28;20030;-87
2023/10/26 11:24:44;;;;;;;2.83;1.30;;;;;;;;;;5027580;28;20033;-87
2023/10/26 11:27:17;;;;;;;3.03;1.20;;;;;;;;;;5022692;28;20041;-87
2023/10/26 11:29:52;;;;;;;2.50;1.30;;;;;;;;;;5018252;28;20509;-87
2023/10/26 11:32:18;;;;;;;2.33;1.38;;;;;;;;;;5018872;28;20025;-87
2023/10/26 11:35:03;;;;;;;3.00;1.77;;;;;;;;;;5012719;28;20025;-86
2023/10/26 11:37:29;;;;;;;3.10;1.70;;;;;;;;;;5026715;28;20037;-86
2023/10/26 11:39:55;;;;;;;2.85;1.40;;;;;;;;;;5026139;28;20404;-87
2023/10/26 11:42:43;;;;;;;1.42;1.20;;;;;;;;;;5013869;28;20076;-87
2023/10/26 11:45:11;;;;;;;2.35;1.33;;;;;;;;;;5029632;28;20041;-86
2023/10/26 11:47:47;;;;;;;3.75;1.10;;;;;;;;;;5029036;28;20033;-86
2023/10/26 11:50:22;;;;;;;2.08;1.00;;;;;;;;;;5027297;28;20496;-86
2023/10/26 11:52:49;;;;;;;3.63;1.15;;;;;;;;;;5018819;28;20054;-86
2023/10/26 11:55:15;;;;;;;3.55;1.10;;;;;;;;;;5031967;28;20091;-87
2023/10/26 11:57:41;;;;;;;2.95;1.00;;;;;;;;;;5028308;28;20030;-86
2023/10/26 12:00:08;;;;;;;3.33;1.50;;;;;;;;;;5027381;28;20060;-86
2023/10/26 12:02:38;;;;;;;2.20;1.40;;;;;;;;;;5023550;28;20064;-86
2023/10/26 12:05:04;;;;;;;1.67;1.20;;;;;;;;;;5023170;28;20032;-86
2023/10/26 12:07:30;;;;;;;1.85;0.90;;;;;;;;;;5033386;28;20033;-86
2023/10/26 12:09:56;;;;;;;1.10;1.00;;;;;;;;;;5027708;28;20409;-86
2023/10/26 12:12:21;;;;;;;1.13;0.80;;;;;;;;;;5021369;28;20042;-86
2023/10/26 12:14:47;;;;;;;1.00;0.82;;;;;;;;;;5007736;28;20049;-86
2023/10/26 12:17:13;;;;;;;1.27;0.90;;;;;;;;;;5027449;28;20037;-86
2023/10/26 12:19:39;;;;;;;1.10;0.93;;;;;;;;;;5025201;28;20481;-86
2023/10/26 12:22:04;;;;;;;0.70;0.70;;;;;;;;;;5020817;28;20049;-87
2023/10/26 12:24:30;;;;;;;0.73;0.73;;;;;;;;;;5013531;28;20057;-86
2023/10/26 12:26:57;;;;;;;1.05;0.85;;;;;;;;;;5026570;28;20506;-88
2023/10/26 12:29:22;;;;;;;4.82;0.98;;;;;;;;;;5021492;28;20499;-86
2023/10/26 12:31:48;;;;;;;1.45;0.90;;;;;;;;;;5020521;28;20042;-87
2023/10/26 12:34:14;;;;;;;2.80;1.10;;;;;;;;;;5018800;28;20034;-87
2023/10/26 12:36:39;;;;;;;1.30;0.70;;;;;;;;;;5024440;28;20025;-87
2023/10/26 12:39:05;;;;;;;0.73;0.70;;;;;;;;;;5029429;28;20041;-87
2023/10/26 12:41:30;;;;;;;1.02;0.80;;;;;;;;;;5027722;28;20042;-87
2023/10/26 12:43:58;;;;;;;1.33;0.63;;;;;;;;;;5025187;28;20455;-86
2023/10/26 12:46:24;;;;;;;0.93;0.63;;;;;;;;;;5022387;28;20033;-87
2023/10/26 12:48:49;;;;;;;0.95;0.70;;;;;;;;;;5032942;28;20637;-86
2023/10/26 12:51:15;;;;;;;1.17;0.82;;;;;;;;;;5022956;28;20041;-88
2023/10/26 12:53:41;;;;;;;0.75;0.70;;;;;;;;;;5024359;28;20034;-88
2023/10/26 12:56:09;;;;;;;1.40;0.90;;;;;;;;;;5016753;28;20026;-88
2023/10/26 12:58:35;;;;;;;1.05;0.82;;;;;;;;;;5029256;28;20022;-88
2023/10/26 13:01:01;;;;;;;1.25;0.90;;;;;;;;;;5011134;28;20034;-90
2023/10/26 13:03:27;;;;;;;1.40;1.05;;;;;;;;;;5024063;28;20026;-88
2023/10/26 13:05:52;;;;;;;1.73;1.00;;;;;;;;;;5022502;28;20357;-88
2023/10/26 13:08:18;;;;;;;1.67;1.00;;;;;;;;;;5019093;28;20122;-89
2023/10/26 13:10:43;;;;;;;1.73;1.20;;;;;;;;;;5031509;28;20361;-87
2023/10/26 13:13:09;;;;;;;2.65;1.00;;;;;;;;;;5030477;28;20080;-89
2023/10/26 13:15:35;;;;;;;1.30;1.08;;;;;;;;;;5029066;28;20025;-88
2023/10/26 13:18:01;;;;;;;1.50;0.80;;;;;;;;;;5025383;28;20087;-88
2023/10/26 13:20:26;;;;;;;1.80;1.00;;;;;;;;;;5024560;28;20048;-88
2023/10/26 13:22:52;;;;;;;1.70;0.93;;;;;;;;;;5032907;28;20372;-88
2023/10/26 13:25:18;;;;;;;3.35;1.00;;;;;;;;;;5034072;28;20030;-87
2023/10/26 13:27:44;;;;;;;2.47;1.10;;;;;;;;;;5026995;28;20195;-88
2023/10/26 13:30:10;;;;;;;1.63;1.30;;;;;;;;;;5022734;28;20172;-88
2023/10/26 13:32:36;;;;;;;1.20;1.08;;;;;;;;;;5030416;28;20034;-88
2023/10/26 13:35:02;;;;;;;3.78;1.00;;;;;;;;;;5017081;28;20048;-89
2023/10/26 13:37:27;;;;;;;2.10;1.23;;;;;;;;;;5029718;28;20033;-88
2023/10/26 13:39:53;;;;;;;1.85;1.23;;;;;;;;;;5025944;28;20075;-88
2023/10/26 13:42:18;;;;;;;2.42;1.48;;;;;;;;;;5016840;28;20068;-84
2023/10/26 13:44:44;;;;;;;3.33;2.00;;;;;;;;;;5034050;28;20041;-86
2023/10/26 13:47:10;;;;;;;4.20;1.38;;;;;;;;;;5030929;28;20048;-86
2023/10/26 13:49:36;;;;;;;3.05;1.70;;;;;;;;;;5026106;28;20038;-86
2023/10/26 13:52:02;;;;;;;3.22;1.50;;;;;;;;;;5021014;28;20045;-86
2023/10/26 13:54:28;;;;;;;2.47;1.30;;;;;;;;;;5033982;28;20039;-86
2023/10/26 13:56:54;;;;;;;1.98;1.13;;;;;;;;;;5033312;28;20135;-86
2023/10/26 13:59:20;;;;;;;1.60;1.00;;;;;;;;;;5024979;28;20040;-86
2023/10/26 14:01:45;;;;;;;1.23;1.10;;;;;;;;;;5020881;28;20124;-86
2023/10/26 14:04:11;;;;;;;1.65;1.00;;;;;;;;;;5028425;28;20045;-85
2023/10/26 14:06:36;;;;;;;2.33;1.17;;;;;;;;;;5030556;28;20033;-86
2023/10/26 14:09:03;;;;;;;1.65;1.00;;;;;;;;;;5026497;28;20140;-87
2023/10/26 14:11:30;;;;;;;1.30;1.00;;;;;;;;;;5019834;28;20535;-86
2023/10/26 14:13:56;;;;;;;2.22;0.93;;;;;;;;;;5019370;28;20674;-87
2023/10/26 14:16:22;;;;;;;1.23;0.80;;;;;;;;;;5028617;28;20152;-86
2023/10/26 14:18:48;;;;;;;1.30;1.02;;;;;;;;;;5028441;28;20033;-86
2023/10/26 14:21:16;;;;;;;2.40;1.10;;;;;;;;;;5018894;28;20042;-87
2023/10/26 14:23:41;;;;;;;1.65;1.17;;;;;;;;;;5017282;28;20041;-87
2023/10/26 14:26:07;;;;;;;2.22;1.10;;;;;;;;;;5029833;28;20033;-86
2023/10/26 14:28:33;;;;;;;1.40;0.95;;;;;;;;;;5026759;28;20512;-85
2023/10/26 14:31:01;;;;;;;1.35;0.85;;;;;;;;;;5022463;28;20459;-85
2023/10/26 14:33:27;;;;;;;1.50;0.95;;;;;;;;;;5016025;28;20488;-85
2023/10/26 14:35:53;;;;;;;1.63;0.98;;;;;;;;;;5025581;28;20042;-85
2023/10/26 14:38:19;;;;;;;1.30;0.80;;;;;;;;;;5028334;28;20057;-85
2023/10/26 14:40:46;;;;;;;2.75;0.80;;;;;;;;;;5020996;28;20485;-86